Time;durP1;ratioP1;P1;durP2;ratioP2;P2;SDS_P1;SDS_P2;PMS_P1;PMS_P2;Temp;Humidity;BMP_temperature;BMP_pressure;BME280_temperature;BME280_humidity;BME280_pressure;Samples;Min_cycle;Max_cycle;Signal;HPM_P1;HPM_P2
2022/04/27 00:00:42;;;;;;;11.32;3.45;;;;;;;10.57;59.48;101250.09;5056404;28;20063;-74
2022/04/27 00:03:09;;;;;;;7.65;3.92;;;;;;;10.46;60.14;101247.16;5052103;28;20119;-74
2022/04/27 00:05:36;;;;;;;5.05;3.90;;;;;;;10.37;59.70;101245.81;5032029;28;20147;-75
2022/04/27 00:08:03;;;;;;;8.60;3.80;;;;;;;10.26;60.88;101251.56;5033717;28;20044;-75
2022/04/27 00:10:31;;;;;;;7.38;3.70;;;;;;;10.20;60.70;101250.97;5061577;28;20087;-75
2022/04/27 00:12:58;;;;;;;7.93;4.00;;;;;;;10.10;61.07;101251.41;5048737;22;20061;-60
2022/04/27 00:15:27;;;;;;;7.18;4.07;;;;;;;10.05;61.46;101260.47;5042102;28;20051;-60
2022/04/27 00:17:54;;;;;;;7.78;4.35;;;;;;;9.98;61.96;101262.50;5036623;28;20049;-61
2022/04/27 00:20:21;;;;;;;8.07;3.75;;;;;;;9.93;61.46;101253.13;5032638;28;20068;-61
2022/04/27 00:22:49;;;;;;;7.65;4.03;;;;;;;9.85;62.13;101259.56;5036154;28;20078;-62
2022/04/27 00:25:16;;;;;;;5.55;3.90;;;;;;;9.80;62.28;101255.47;5035930;28;20052;-62
2022/04/27 00:27:43;;;;;;;8.93;3.97;;;;;;;9.75;63.09;101262.72;5039661;28;20053;-63
2022/04/27 00:30:11;;;;;;;4.80;3.88;;;;;;;9.71;63.13;101258.50;5045612;28;20049;-62
2022/04/27 00:32:38;;;;;;;8.35;4.03;;;;;;;9.62;63.88;101262.41;5044440;28;20068;-62
2022/04/27 00:35:08;;;;;;;8.27;4.15;;;;;;;9.55;63.77;101256.56;5051257;28;20049;-62
2022/04/27 00:37:35;;;;;;;5.60;4.05;;;;;;;9.52;64.21;101261.97;5044946;28;20075;-62
2022/04/27 00:40:02;;;;;;;5.72;4.45;;;;;;;9.47;64.36;101266.56;5046038;28;20056;-61
2022/04/27 00:42:30;;;;;;;7.05;4.90;;;;;;;9.40;65.04;101262.50;5038606;28;20067;-62
2022/04/27 00:44:57;;;;;;;9.88;4.65;;;;;;;9.32;65.24;101262.84;5038927;28;20075;-61
2022/04/27 00:47:24;;;;;;;9.23;5.00;;;;;;;9.26;65.65;101257.00;5047534;28;20606;-62
2022/04/27 00:49:52;;;;;;;9.35;5.40;;;;;;;9.20;66.59;101262.53;5042727;28;20063;-62
2022/04/27 00:52:20;;;;;;;7.93;5.00;;;;;;;9.18;65.96;101259.94;5045701;28;20072;-63
2022/04/27 00:54:48;;;;;;;10.07;6.05;;;;;;;9.15;66.13;101265.34;5040690;28;20050;-62
2022/04/27 00:57:16;;;;;;;10.85;5.68;;;;;;;9.07;67.64;101267.44;5056625;28;20056;-62
2022/04/27 00:59:45;;;;;;;9.02;5.93;;;;;;;8.98;67.87;101271.31;5046297;28;20068;-61
2022/04/27 01:02:12;;;;;;;7.95;5.88;;;;;;;8.94;68.05;101282.84;5047064;28;20075;-63
2022/04/27 01:04:40;;;;;;;10.93;6.78;;;;;;;8.91;68.19;101280.34;5043630;28;20065;-62
2022/04/27 01:07:07;;;;;;;11.48;5.95;;;;;;;8.84;68.55;101281.53;5040047;28;20093;-63
2022/04/27 01:09:35;;;;;;;12.57;5.43;;;;;;;8.84;69.02;101289.41;5041385;28;20076;-62
2022/04/27 01:12:03;;;;;;;9.65;5.03;;;;;;;8.85;68.88;101283.22;5047843;28;20044;-64
2022/04/27 01:14:47;;;;;;;9.48;5.20;;;;;;;8.79;68.60;101294.00;5042038;28;20060;-62
2022/04/27 01:17:15;;;;;;;9.48;4.47;;;;;;;8.77;69.58;101291.41;5040242;28;20393;-62
2022/04/27 01:19:42;;;;;;;8.35;4.63;;;;;;;8.74;69.30;101285.47;5039766;28;20056;-62
2022/04/27 01:22:09;;;;;;;7.10;5.50;;;;;;;8.71;69.49;101285.56;5041372;28;20104;-62
2022/04/27 01:24:36;;;;;;;8.35;5.35;;;;;;;8.63;69.36;101283.25;5043659;28;20041;-63
2022/04/27 01:27:04;;;;;;;7.05;4.93;;;;;;;8.55;69.79;101293.19;5045185;28;20048;-62
2022/04/27 01:29:33;;;;;;;8.70;5.00;;;;;;;8.48;70.09;101289.13;5043949;28;20516;-62
2022/04/27 01:32:01;;;;;;;7.68;4.93;;;;;;;8.46;70.06;101296.19;5044392;28;20049;-62
2022/04/27 01:34:29;;;;;;;6.55;5.10;;;;;;;8.40;70.65;101307.78;5043690;28;20051;-61
2022/04/27 01:38:00;;;;;;;10.07;5.88;;;;;;;8.36;70.57;101309.66;5045154;28;20527;-62
2022/04/27 01:39:43;;;;;;;7.40;5.57;;;;;;;8.33;71.56;101306.25;5045003;28;20060;-62
2022/04/27 01:42:10;;;;;;;12.85;6.13;;;;;;;8.24;71.60;101310.13;5048295;28;20049;-62
2022/04/27 01:44:37;;;;;;;9.55;5.45;;;;;;;8.20;72.41;101305.06;5046014;28;20052;-62
2022/04/27 01:47:05;;;;;;;8.50;4.93;;;;;;;8.16;72.38;101312.19;5049699;28;20045;-62
2022/04/27 01:49:32;;;;;;;7.82;5.57;;;;;;;8.10;72.55;101310.66;5044204;28;20045;-62
2022/04/27 01:54:45;;;;;;;7.65;5.68;;;;;;;8.03;73.30;101313.56;5049663;28;20053;-61
2022/04/27 01:57:12;;;;;;;9.75;5.85;;;;;;;7.92;73.28;101311.31;5040806;28;20056;-64
2022/04/27 01:59:41;;;;;;;10.52;6.00;;;;;;;7.89;73.87;101315.84;5042237;28;20045;-64
2022/04/27 02:02:09;;;;;;;9.15;5.68;;;;;;;7.85;73.71;101315.94;5049455;28;20048;-62
2022/04/27 02:04:39;;;;;;;8.82;6.28;;;;;;;7.84;74.19;101318.63;5046908;28;20389;-61
2022/04/27 02:07:08;;;;;;;7.50;5.45;;;;;;;7.77;74.58;101317.13;5046433;28;20079;-62
2022/04/27 02:09:36;;;;;;;9.32;5.88;;;;;;;7.73;75.26;101324.22;5035945;28;20111;-61
2022/04/27 02:12:06;;;;;;;10.20;6.47;;;;;;;7.66;75.26;101333.25;5039197;28;20412;-63
2022/04/27 02:14:33;;;;;;;9.70;6.47;;;;;;;7.65;75.01;101328.88;5046745;28;20053;-63
2022/04/27 02:17:01;;;;;;;8.35;5.97;;;;;;;7.65;74.88;101328.03;5046471;28;20061;-61
2022/04/27 02:19:28;;;;;;;9.38;5.82;;;;;;;7.61;75.18;101340.41;5040590;28;20060;-61
2022/04/27 02:21:57;;;;;;;10.13;6.40;;;;;;;7.58;75.44;101335.28;5041446;28;20064;-62
2022/04/27 02:24:25;;;;;;;13.68;6.97;;;;;;;7.51;75.64;101334.63;5047687;28;20406;-61
2022/04/27 02:26:54;;;;;;;9.95;5.72;;;;;;;7.49;76.01;101336.44;5043450;28;20071;-62
2022/04/27 02:29:22;;;;;;;10.27;6.40;;;;;;;7.43;76.27;101335.78;5044593;28;20056;-61
2022/04/27 02:31:50;;;;;;;10.73;7.40;;;;;;;7.42;75.29;101340.16;5041279;28;20171;-62
2022/04/27 02:34:17;;;;;;;11.73;6.93;;;;;;;7.41;76.20;101335.00;5045441;28;20053;-61
2022/04/27 02:36:44;;;;;;;9.73;7.07;;;;;;;7.36;76.37;101340.41;5048386;28;20057;-61
2022/04/27 02:39:11;;;;;;;10.73;5.97;;;;;;;7.30;76.47;101338.84;5044097;28;20038;-67
2022/04/27 02:41:41;;;;;;;10.32;7.13;;;;;;;7.26;76.65;101341.63;5043129;28;20049;-62
2022/04/27 02:44:08;;;;;;;7.80;6.03;;;;;;;7.26;76.36;101341.63;5045150;28;20471;-60
2022/04/27 02:46:37;;;;;;;7.65;5.72;;;;;;;7.20;76.52;101339.19;5045826;28;20068;-61
2022/04/27 02:51:51;;;;;;;11.80;6.60;;;;;;;7.15;76.57;101349.81;5043070;28;20056;-62
2022/04/27 02:54:20;;;;;;;12.13;6.75;;;;;;;7.13;76.31;101349.03;5041317;28;20052;-61
2022/04/27 02:56:48;;;;;;;12.63;6.68;;;;;;;7.13;76.27;101349.03;5046770;28;20049;-63
2022/04/27 02:59:16;;;;;;;10.75;7.07;;;;;;;7.12;76.10;101356.94;5041733;28;20501;-63
2022/04/27 03:01:43;;;;;;;10.60;7.22;;;;;;;7.07;76.36;101363.19;5048019;28;20053;-61
2022/04/27 03:04:11;;;;;;;12.95;7.53;;;;;;;7.04;76.58;101354.56;5042609;28;20055;-60
2022/04/27 03:06:38;;;;;;;11.68;6.70;;;;;;;6.97;77.46;101356.50;5047984;28;20052;-62
2022/04/27 03:09:06;;;;;;;11.38;6.90;;;;;;;6.96;77.27;101356.56;5043806;28;20058;-62
2022/04/27 03:11:33;;;;;;;13.45;6.82;;;;;;;6.94;76.99;101358.41;5048296;28;20065;-63
2022/04/27 03:14:00;;;;;;;9.65;6.70;;;;;;;6.91;76.56;101361.09;5042624;28;20537;-59
2022/04/27 03:16:28;;;;;;;14.00;7.47;;;;;;;6.89;76.73;101350.69;5039036;28;20040;-62
2022/04/27 03:18:55;;;;;;;10.38;7.15;;;;;;;6.91;76.31;101366.34;5043465;28;21393;-62
2022/04/27 03:21:22;;;;;;;10.60;6.85;;;;;;;6.86;77.36;101366.47;5045802;28;20069;-61
2022/04/27 03:23:49;;;;;;;9.77;6.75;;;;;;;6.84;77.09;101365.66;5026563;28;20080;-62
2022/04/27 03:26:16;;;;;;;12.73;6.80;;;;;;;6.83;76.98;101364.81;5039573;28;20076;-61
2022/04/27 03:28:44;;;;;;;12.02;7.55;;;;;;;6.82;77.22;101376.19;5051540;28;20858;-61
2022/04/27 03:31:11;;;;;;;11.20;7.30;;;;;;;6.82;76.85;101377.94;5048472;28;20057;-63
2022/04/27 03:33:39;;;;;;;11.98;7.45;;;;;;;6.82;77.26;101380.56;5029041;28;20047;-60
2022/04/27 03:36:08;;;;;;;12.85;7.78;;;;;;;6.77;77.62;101385.09;5045970;28;20064;-61
2022/04/27 03:38:35;;;;;;;12.13;7.13;;;;;;;6.77;77.80;101387.72;5043708;28;20068;-60
2022/04/27 03:41:03;;;;;;;11.30;7.85;;;;;;;6.73;77.79;101384.31;5045783;28;20403;-62
2022/04/27 03:43:30;;;;;;;11.40;6.93;;;;;;;6.68;78.27;101388.00;5041219;28;20052;-62
2022/04/27 03:45:57;;;;;;;11.68;7.82;;;;;;;6.67;78.27;101388.91;5044255;28;20148;-63
2022/04/27 03:48:25;;;;;;;9.73;7.57;;;;;;;6.69;78.14;101392.31;5044018;28;20049;-63
2022/04/27 03:50:52;;;;;;;10.45;7.22;;;;;;;6.67;77.95;101401.97;5040845;28;20057;-61
2022/04/27 03:53:19;;;;;;;12.00;7.07;;;;;;;6.68;77.85;101401.06;5036318;28;20090;-61
2022/04/27 03:55:46;;;;;;;13.82;7.57;;;;;;;6.68;77.97;101407.16;5044711;28;20060;-62
2022/04/27 03:58:13;;;;;;;9.73;6.95;;;;;;;6.68;78.41;101411.53;5041295;28;20056;-63
2022/04/27 04:00:40;;;;;;;10.10;7.03;;;;;;;6.66;78.50;101408.94;5043613;28;20343;-62
2022/04/27 04:03:08;;;;;;;12.13;7.57;;;;;;;6.64;78.45;101412.53;5047414;28;20767;-62
2022/04/27 04:05:42;;;;;;;15.85;7.40;;;;;;;6.66;78.14;101414.19;5040900;28;20052;-60
2022/04/27 04:08:09;;;;;;;15.50;7.50;;;;;;;6.68;78.14;101417.63;5023863;28;20045;-63
2022/04/27 04:10:36;;;;;;;12.43;7.05;;;;;;;6.72;78.15;101421.00;5043299;28;20056;-62
2022/04/27 04:13:03;;;;;;;13.00;8.15;;;;;;;6.74;78.16;101417.44;5046864;28;20481;-62
2022/04/27 04:15:31;;;;;;;10.85;6.97;;;;;;;6.77;78.13;101416.50;5045622;28;20591;-60
2022/04/27 04:17:58;;;;;;;10.98;6.40;;;;;;;6.78;77.85;101424.28;5029370;28;20480;-61
2022/04/27 04:20:25;;;;;;;10.45;7.47;;;;;;;6.80;77.81;101426.88;5043332;28;20401;-60
2022/04/27 04:22:52;;;;;;;14.68;7.53;;;;;;;6.80;78.06;101434.72;5043929;28;20080;-62
2022/04/27 04:30:51;;;;;;;11.77;6.47;;;;;;;6.93;77.50;101430.81;5043674;28;20121;-62
2022/04/27 04:33:19;;;;;;;17.73;7.50;;;;;;;6.94;78.43;101440.41;5036454;28;20049;-62
2022/04/27 04:35:46;;;;;;;15.52;6.88;;;;;;;6.95;78.38;101436.88;5032112;28;21868;-63
2022/04/27 04:38:14;;;;;;;13.13;7.03;;;;;;;7.03;77.61;101444.50;5045210;28;20053;-59
2022/04/27 04:40:41;;;;;;;10.15;6.55;;;;;;;7.10;77.16;101444.22;5041329;28;20049;-62
2022/04/27 04:43:09;;;;;;;15.88;6.38;;;;;;;7.14;76.83;101452.00;5044311;28;20108;-62
2022/04/27 04:45:36;;;;;;;12.57;7.93;;;;;;;7.14;77.38;101457.22;5037766;28;20561;-62
2022/04/27 04:48:03;;;;;;;11.90;7.45;;;;;;;7.21;76.13;101458.78;5043255;28;20179;-63
2022/04/27 04:50:30;;;;;;;12.38;7.20;;;;;;;7.29;75.48;101461.97;5035374;28;20064;-61
2022/04/27 04:52:58;;;;;;;11.55;7.47;;;;;;;7.37;74.81;101459.97;5046211;28;20061;-63
2022/04/27 04:55:25;;;;;;;13.10;7.65;;;;;;;7.49;73.96;101471.84;5045981;28;20068;-61
2022/04/27 04:57:52;;;;;;;16.40;7.28;;;;;;;7.55;73.34;101464.59;5045832;28;20297;-60
2022/04/27 05:00:20;;;;;;;11.15;7.40;;;;;;;7.63;73.03;101471.38;5020773;28;20045;-63
2022/04/27 05:02:47;;;;;;;13.75;7.65;;;;;;;7.72;72.74;101473.69;5045159;28;20162;-62
2022/04/27 05:05:14;;;;;;;12.18;7.82;;;;;;;7.83;71.97;101475.06;5046011;28;20059;-62
2022/04/27 05:07:41;;;;;;;16.23;7.93;;;;;;;7.96;71.40;101480.72;5047320;28;20061;-61
2022/04/27 05:10:08;;;;;;;12.38;8.20;;;;;;;8.07;70.68;101480.34;5043212;28;20053;-62
2022/04/27 05:12:36;;;;;;;12.20;7.03;;;;;;;8.22;69.98;101482.44;5046673;28;20067;-63
2022/04/27 05:15:03;;;;;;;18.92;8.68;;;;;;;8.31;69.57;101487.34;5041586;28;20105;-61
2022/04/27 05:17:30;;;;;;;14.30;7.88;;;;;;;8.37;69.29;101486.28;5059355;28;20060;-62
2022/04/27 05:19:57;;;;;;;16.98;7.93;;;;;;;8.48;68.97;101494.66;5040064;28;20049;-62
2022/04/27 05:22:24;;;;;;;10.82;7.97;;;;;;;8.65;68.29;101501.06;5042450;28;20091;-63
2022/04/27 05:24:52;;;;;;;9.73;6.80;;;;;;;8.79;67.66;101502.25;5043431;28;20060;-62
2022/04/27 05:27:20;;;;;;;10.73;7.60;;;;;;;8.95;66.80;101504.28;5038653;28;20049;-62
2022/04/27 05:32:41;;;;;;;14.45;8.68;;;;;;;9.17;64.53;101502.53;5044512;28;20052;-58
2022/04/27 05:35:08;;;;;;;23.20;9.30;;;;;;;9.21;64.23;101505.91;5046395;28;20060;-61
2022/04/27 05:37:35;;;;;;;16.52;8.93;;;;;;;9.25;63.42;101513.63;5040939;28;20104;-60
2022/04/27 05:40:03;;;;;;;14.57;7.95;;;;;;;9.32;62.82;101519.47;5041046;28;20076;-60
2022/04/27 05:42:31;;;;;;;18.58;8.63;;;;;;;9.33;62.72;101515.97;5018545;28;20049;-59
2022/04/27 05:44:58;;;;;;;14.10;8.98;;;;;;;9.49;62.55;101516.19;5031818;28;20065;-60
2022/04/27 05:47:25;;;;;;;12.90;7.43;;;;;;;9.62;61.99;101523.50;5020499;28;20532;-60
2022/04/27 05:49:52;;;;;;;13.25;7.68;;;;;;;9.68;60.61;101529.44;5027269;28;20049;-60
2022/04/27 05:52:20;;;;;;;16.27;7.55;;;;;;;9.76;61.21;101522.94;5004155;28;20064;-59
2022/04/27 05:54:48;;;;;;;18.67;8.35;;;;;;;9.87;61.08;101527.78;5025213;28;20073;-60
2022/04/27 05:57:15;;;;;;;12.88;8.40;;;;;;;9.95;60.40;101530.97;5019047;28;20521;-60
2022/04/27 05:59:43;;;;;;;14.32;8.70;;;;;;;10.04;60.15;101530.56;5003143;28;20053;-60
2022/04/27 06:02:10;;;;;;;14.50;8.57;;;;;;;10.17;59.58;101530.03;5006399;28;20056;-57
2022/04/27 06:04:37;;;;;;;12.93;8.18;;;;;;;10.27;59.27;101536.66;5024136;28;20068;-58
2022/04/27 06:07:08;;;;;;;14.35;7.28;;;;;;;10.40;57.80;101532.53;5021510;28;20056;-59
2022/04/27 06:09:35;;;;;;;16.90;8.18;;;;;;;10.56;58.37;101541.50;5020691;28;20053;-59
2022/04/27 06:12:02;;;;;;;10.55;7.05;;;;;;;10.68;57.90;101547.16;5017199;28;20058;-59
2022/04/27 06:14:30;;;;;;;11.73;6.97;;;;;;;10.80;56.68;101544.78;5020221;28;20053;-56
2022/04/27 06:16:57;;;;;;;13.88;7.40;;;;;;;10.90;55.53;101546.09;5023683;28;20056;-59
2022/04/27 06:19:24;;;;;;;9.88;6.88;;;;;;;11.00;55.08;101556.22;5021970;28;20386;-59
2022/04/27 06:21:51;;;;;;;10.43;6.82;;;;;;;11.09;55.39;101551.38;5023298;28;20150;-58
2022/04/27 06:24:18;;;;;;;11.38;7.50;;;;;;;11.16;55.63;101565.97;5017902;28;20157;-57
2022/04/27 06:26:46;;;;;;;14.15;7.53;;;;;;;11.32;54.44;101563.50;5025547;28;20050;-59
2022/04/27 06:29:13;;;;;;;16.77;8.20;;;;;;;11.27;53.97;101562.84;5025678;28;20382;-58
2022/04/27 06:31:40;;;;;;;14.80;8.02;;;;;;;11.27;54.37;101562.00;5022026;28;20080;-58
2022/04/27 06:34:07;;;;;;;16.40;8.32;;;;;;;11.38;54.03;101570.25;5025693;28;20072;-58
2022/04/27 06:36:36;;;;;;;18.00;8.68;;;;;;;11.41;54.07;101565.69;5042395;28;20149;-59
2022/04/27 06:39:07;;;;;;;14.05;8.23;;;;;;;11.47;53.19;101559.25;5027049;28;20175;-58
2022/04/27 06:41:34;;;;;;;16.52;8.32;;;;;;;11.47;53.80;101561.91;5027993;28;20057;-60
2022/04/27 06:44:01;;;;;;;13.65;8.00;;;;;;;11.55;52.91;101561.53;5034448;28;20141;-58
2022/04/27 06:46:28;;;;;;;17.80;7.93;;;;;;;11.61;53.62;101571.78;5022009;28;20120;-59
2022/04/27 06:48:55;;;;;;;17.25;9.15;;;;;;;11.68;52.45;101559.16;5019312;28;20061;-59
2022/04/27 06:51:23;;;;;;;12.38;7.45;;;;;;;11.74;52.11;101567.63;5018777;28;20081;-58
2022/04/27 06:53:50;;;;;;;13.05;7.45;;;;;;;11.93;52.00;101566.75;5024113;28;20980;-58
2022/04/27 06:56:17;;;;;;;15.98;6.95;;;;;;;11.99;51.93;101564.69;5025267;28;20133;-59
2022/04/27 06:58:44;;;;;;;19.85;7.85;;;;;;;12.10;51.29;101569.41;5023441;28;20502;-59
2022/04/27 07:01:13;;;;;;;11.82;7.05;;;;;;;12.22;51.53;101573.22;5025921;28;20056;-61
2022/04/27 07:03:42;;;;;;;17.13;8.07;;;;;;;12.33;51.13;101568.25;5023505;28;20061;-60
2022/04/27 07:06:09;;;;;;;19.90;7.93;;;;;;;12.45;50.85;101570.25;5030286;28;20053;-60
2022/04/27 07:08:36;;;;;;;11.93;7.57;;;;;;;12.52;50.49;101571.66;5014287;28;20212;-59
2022/04/27 07:11:03;;;;;;;15.23;7.43;;;;;;;12.59;50.47;101565.09;5017212;28;20049;-60
2022/04/27 07:13:30;;;;;;;15.77;8.63;;;;;;;12.70;50.74;101579.53;5021171;28;20049;-59
2022/04/27 07:16:00;;;;;;;65.82;11.95;;;;;;;12.87;50.53;101583.00;5024981;28;20053;-59
2022/04/27 07:18:29;;;;;;;35.60;9.27;;;;;;;12.94;50.36;101580.91;5024395;28;20080;-59
2022/04/27 07:20:57;;;;;;;18.17;8.32;;;;;;;12.92;49.85;101586.28;5022679;28;20369;-58
2022/04/27 07:23:24;;;;;;;15.10;8.13;;;;;;;12.99;49.06;101594.72;5029624;28;20065;-57
2022/04/27 07:25:51;;;;;;;22.45;8.15;;;;;;;13.09;48.73;101597.72;5026596;28;20175;-60
2022/04/27 07:28:18;;;;;;;15.40;7.30;;;;;;;13.13;49.01;101600.09;5020911;28;20053;-60
2022/04/27 07:30:45;;;;;;;17.30;6.57;;;;;;;13.15;47.76;101598.25;5018788;28;20056;-57
2022/04/27 07:33:12;;;;;;;11.50;6.63;;;;;;;13.21;47.97;101594.41;5028141;28;20065;-60
2022/04/27 07:35:40;;;;;;;9.32;6.75;;;;;;;13.26;47.26;101602.13;5026521;28;20061;-61
2022/04/27 07:38:07;;;;;;;15.00;6.97;;;;;;;13.37;47.09;101597.09;5028463;28;20480;-59
2022/04/27 07:40:34;;;;;;;11.05;6.55;;;;;;;13.54;46.93;101596.16;5022733;28;20045;-60
2022/04/27 07:43:01;;;;;;;11.10;6.25;;;;;;;13.66;46.87;101604.28;5024162;28;20041;-60
2022/04/27 07:45:29;;;;;;;11.43;6.82;;;;;;;13.82;46.83;101603.38;5019119;28;20384;-58
2022/04/27 07:47:56;;;;;;;16.98;6.90;;;;;;;13.83;44.88;101605.13;5024740;28;20390;-60
2022/04/27 07:50:24;;;;;;;10.95;6.30;;;;;;;13.91;45.08;101602.88;5019402;28;20449;-60
2022/04/27 07:52:51;;;;;;;11.50;6.60;;;;;;;14.05;44.34;101616.19;5020184;28;20038;-60
2022/04/27 07:55:18;;;;;;;8.50;5.35;;;;;;;13.98;43.58;101608.69;5014901;28;20057;-60
2022/04/27 07:57:45;;;;;;;10.63;5.28;;;;;;;14.01;42.58;101612.00;5018237;28;20076;-58
2022/04/27 08:00:13;;;;;;;13.38;5.38;;;;;;;14.07;42.82;101616.09;5007853;28;20053;-59
2022/04/27 08:02:40;;;;;;;14.73;4.47;;;;;;;14.26;43.56;101624.66;5017462;28;20402;-59
2022/04/27 08:05:09;;;;;;;12.88;5.10;;;;;;;14.46;42.06;101615.56;5017923;28;20257;-60
2022/04/27 08:07:41;;;;;;;8.38;4.70;;;;;;;14.53;41.63;101613.41;5018390;28;20053;-58
2022/04/27 08:10:13;;;;;;;10.98;4.93;;;;;;;14.63;41.51;101614.56;5019596;28;20060;-60
2022/04/27 08:12:42;;;;;;;11.75;4.40;;;;;;;14.72;40.48;101615.81;5018762;28;20058;-59
2022/04/27 08:15:10;;;;;;;9.65;4.20;;;;;;;14.70;40.62;101618.56;5028677;28;20079;-61
2022/04/27 08:17:54;;;;;;;18.30;5.65;;;;;;;14.86;39.70;101618.47;5020094;28;20590;-59
2022/04/27 08:23:09;;;;;;;9.38;4.35;;;;;;;15.03;39.56;101622.75;5018246;28;20068;-60
2022/04/27 08:25:43;;;;;;;12.63;3.78;;;;;;;14.99;38.29;101618.56;5014412;28;20057;-59
2022/04/27 08:28:11;;;;;;;11.65;4.32;;;;;;;15.08;38.02;101624.16;5018596;28;20055;-60
2022/04/27 08:30:40;;;;;;;6.70;3.25;;;;;;;15.17;38.63;101617.44;5016691;28;20053;-58
2022/04/27 08:33:07;;;;;;;6.20;2.67;;;;;;;15.39;38.31;101630.19;5013406;28;20053;-59
2022/04/27 08:35:36;;;;;;;8.35;2.72;;;;;;;15.33;37.29;101626.13;5021995;28;20051;-59
2022/04/27 08:38:04;;;;;;;4.15;2.92;;;;;;;15.52;37.70;101632.94;5044839;28;20048;-57
2022/04/27 08:40:32;;;;;;;9.40;3.03;;;;;;;15.68;36.97;101628.41;5009094;28;20043;-59
2022/04/27 08:43:01;;;;;;;20.38;3.60;;;;;;;15.78;36.66;101632.16;5000300;28;20042;-59
2022/04/27 08:45:29;;;;;;;7.60;2.83;;;;;;;15.83;35.78;101631.84;5025081;28;20061;-59
2022/04/27 08:47:57;;;;;;;4.85;3.00;;;;;;;15.86;36.47;101632.50;5027192;28;20063;-60
2022/04/27 08:50:25;;;;;;;9.25;2.92;;;;;;;15.77;35.44;101632.25;5029635;28;20053;-60
2022/04/27 08:52:53;;;;;;;4.65;2.88;;;;;;;15.72;35.94;101631.72;5024921;28;20053;-59
2022/04/27 08:55:21;;;;;;;6.15;3.20;;;;;;;15.81;35.65;101633.78;5025516;28;20053;-60
2022/04/27 08:57:49;;;;;;;6.15;2.28;;;;;;;16.04;35.62;101638.44;5027046;28;20060;-60
2022/04/27 09:00:18;;;;;;;7.93;2.67;;;;;;;15.91;34.36;101646.34;5025156;28;20037;-60
2022/04/27 09:02:46;;;;;;;4.80;2.47;;;;;;;16.06;34.60;101633.84;5027244;28;20052;-60
2022/04/27 09:05:18;;;;;;;12.32;2.20;;;;;;;16.40;35.53;101642.25;5031992;28;20057;-60
2022/04/27 09:07:50;;;;;;;3.67;2.78;;;;;;;16.66;34.50;101641.34;5025503;28;20057;-61
2022/04/27 09:10:18;;;;;;;6.00;2.55;;;;;;;16.77;34.88;101637.13;5004556;28;20064;-60
2022/04/27 09:12:50;;;;;;;6.75;2.67;;;;;;;17.10;34.81;101639.22;5021440;28;20053;-60
2022/04/27 09:15:19;;;;;;;5.30;3.38;;;;;;;17.00;33.68;101640.84;5026411;28;20049;-59
2022/04/27 09:20:46;;;;;;;8.45;2.88;;;;;;;16.98;33.35;101634.78;5028013;28;20053;-58
2022/04/27 09:20:47;;;;;;;11.50;2.78;;;;;;;16.81;32.83;101641.28;5025438;28;20061;-60
2022/04/27 09:23:27;;;;;;;7.22;2.90;;;;;;;16.59;34.39;101650.66;5022862;28;20517;-57
2022/04/27 09:25:56;;;;;;;6.72;3.08;;;;;;;16.54;34.22;101642.16;5026747;28;20180;-60
2022/04/27 09:28:30;;;;;;;6.22;2.70;;;;;;;16.80;34.25;101644.88;5018177;28;20473;-59
2022/04/27 09:30:58;;;;;;;10.65;3.30;;;;;;;16.56;33.52;101642.91;5016719;28;20560;-58
2022/04/27 09:33:36;;;;;;;8.05;3.10;;;;;;;17.05;35.30;101638.69;5025535;28;20054;-52
2022/04/27 09:36:23;;;;;;;5.40;2.97;;;;;;;17.59;35.41;101633.06;5023859;28;20506;-58
2022/04/27 09:38:51;;;;;;;12.93;2.70;;;;;;;17.86;33.09;101635.56;5024757;28;20072;-60
2022/04/27 09:41:38;;;;;;;8.10;2.65;;;;;;;17.14;33.06;101638.06;5024262;28;20056;-63
2022/04/27 09:44:05;;;;;;;3.40;2.33;;;;;;;16.96;33.23;101640.19;5019756;28;20050;-55
2022/04/27 09:46:41;;;;;;;4.75;3.22;;;;;;;16.57;33.55;101641.97;5027073;28;20389;-52
2022/04/27 09:49:09;;;;;;;;;;;;;;;16.57;33.73;101647.28;5027988;28;20049;-52
2022/04/27 09:51:56;;;;;;;4.30;2.42;;;;;;;16.94;34.09;101652.75;5024062;28;20385;-55
2022/04/27 09:54:30;;;;;;;9.55;2.65;;;;;;;17.34;33.58;101644.66;5019296;28;20051;-53
2022/04/27 09:56:59;;;;;;;22.80;2.63;;;;;;;17.63;33.37;101642.53;5005658;28;20057;-53
2022/04/27 09:59:31;;;;;;;13.60;2.30;;;;;;;17.94;32.71;101639.38;5001373;28;20382;-56
2022/04/27 10:02:07;;;;;;;3.95;2.05;;;;;;;17.72;32.68;101642.72;5023907;28;20041;-55
2022/04/27 10:04:36;;;;;;;3.47;2.17;;;;;;;17.95;31.93;101650.88;5023080;28;20065;-58
2022/04/27 10:07:10;;;;;;;8.82;2.33;;;;;;;18.44;31.11;101648.06;5028990;28;20485;-53
2022/04/27 10:09:37;;;;;;;10.82;2.15;;;;;;;18.05;30.60;101646.56;5022674;28;20065;-57
2022/04/27 10:12:11;;;;;;;3.58;2.38;;;;;;;17.24;29.96;101646.22;5022512;28;20041;-60
2022/04/27 10:14:39;;;;;;;3.65;2.35;;;;;;;17.04;31.64;101648.50;5023859;28;20053;-60
2022/04/27 10:17:06;;;;;;;8.43;2.42;;;;;;;17.15;30.78;101647.72;5022321;28;20045;-60
2022/04/27 10:19:34;;;;;;;4.75;1.90;;;;;;;17.49;30.12;101646.19;5008945;28;20386;-59
2022/04/27 10:22:05;;;;;;;5.97;2.10;;;;;;;17.81;30.03;101638.56;5029382;28;20095;-60
2022/04/27 10:24:46;;;;;;;6.05;1.73;;;;;;;18.01;29.79;101644.22;5037542;28;20049;-60
2022/04/27 10:27:25;;;;;;;6.85;1.90;;;;;;;18.11;29.60;101643.47;5023828;28;20397;-59
2022/04/27 10:29:59;;;;;;;7.20;2.38;;;;;;;18.12;30.76;101647.81;5023621;28;20064;-60
2022/04/27 10:32:42;;;;;;;4.00;1.83;;;;;;;18.17;30.04;101645.66;5024916;28;20054;-60
2022/04/27 10:35:12;;;;;;;4.57;2.00;;;;;;;18.26;29.70;101645.94;5029228;28;20497;-60
2022/04/27 10:37:51;;;;;;;9.13;1.75;;;;;;;18.95;29.76;101637.03;5028095;28;20060;-60
2022/04/27 10:40:29;;;;;;;4.88;1.67;;;;;;;19.23;28.15;101633.06;5019919;28;20049;-60
2022/04/27 10:43:05;;;;;;;11.43;1.65;;;;;;;18.86;27.64;101639.56;5025605;28;20053;-58
2022/04/27 10:45:40;;;;;;;2.85;1.83;;;;;;;19.44;28.91;101626.94;5021702;28;20407;-58
2022/04/27 10:48:17;;;;;;;4.68;1.33;;;;;;;19.62;28.45;101630.84;5027494;28;20049;-61
2022/04/27 10:51:03;;;;;;;4.18;2.30;;;;;;;19.30;28.99;101635.22;5032911;28;20049;-60
2022/04/27 10:53:40;;;;;;;3.67;1.60;;;;;;;18.89;28.09;101631.34;5030611;28;20073;-60
2022/04/27 10:56:27;;;;;;;7.78;2.00;;;;;;;18.61;28.69;101638.78;5023088;28;20073;-59
2022/04/27 10:58:55;;;;;;;4.35;2.10;;;;;;;18.72;28.80;101632.63;5021726;28;20064;-59
2022/04/27 11:01:27;;;;;;;7.10;2.20;;;;;;;18.80;28.63;101637.38;5029294;28;20044;-60
2022/04/27 11:03:59;;;;;;;4.30;2.15;;;;;;;19.12;28.05;101616.19;5025734;28;20068;-60
2022/04/27 11:06:27;;;;;;;8.13;1.88;;;;;;;19.83;27.89;101630.91;5025481;28;20049;-61
2022/04/27 11:09:12;;;;;;;4.72;1.65;;;;;;;20.59;28.36;101630.88;5021078;28;21450;-57
2022/04/27 11:11:53;;;;;;;3.78;1.40;;;;;;;21.14;27.95;101626.94;5012244;28;20570;-58
2022/04/27 11:14:27;;;;;;;2.70;1.63;;;;;;;20.84;26.94;101627.75;5027964;28;20060;-59
2022/04/27 11:16:54;;;;;;;2.70;1.48;;;;;;;20.82;26.67;101636.94;5020977;28;20414;-59
2022/04/27 11:19:33;;;;;;;7.80;1.73;;;;;;;20.47;27.53;101646.09;5026834;28;20053;-60
2022/04/27 11:22:16;;;;;;;4.90;1.75;;;;;;;20.34;26.31;101640.91;5020163;28;20480;-60
2022/04/27 11:24:47;;;;;;;6.20;1.60;;;;;;;20.19;27.41;101637.72;5020809;28;20061;-60
2022/04/27 11:27:26;;;;;;;9.20;1.75;;;;;;;20.61;26.93;101643.13;5023653;28;20147;-60
2022/04/27 11:29:53;;;;;;;7.05;2.35;;;;;;;21.31;25.27;101628.16;5023867;28;20165;-59
2022/04/27 11:32:20;;;;;;;3.92;1.27;;;;;;;21.44;24.13;101627.94;5042919;22;20203;-58
2022/04/27 11:34:48;;;;;;;7.15;1.80;;;;;;;21.91;24.26;101633.50;5019134;28;20069;-56
2022/04/27 11:37:18;;;;;;;4.38;1.80;;;;;;;21.81;24.23;101628.13;5013752;28;20061;-56
2022/04/27 11:39:46;;;;;;;3.90;1.42;;;;;;;22.36;25.71;101630.31;5026539;28;20493;-53
2022/04/27 11:42:16;;;;;;;4.00;1.67;;;;;;;22.62;25.30;101631.41;5023219;28;20054;-56
2022/04/27 11:44:50;;;;;;;3.22;1.52;;;;;;;22.83;25.80;101627.66;5021501;28;20057;-54
2022/04/27 11:47:31;;;;;;;12.82;1.80;;;;;;;22.06;25.21;101632.09;5023980;28;20083;-56
2022/04/27 11:50:03;;;;;;;6.57;1.98;;;;;;;22.34;25.23;101635.81;5025086;28;20068;-57